createdAt,value
2022-09-11T00:00:11.059Z,100621.07
2022-09-11T00:01:11.071Z,100617.66
2022-09-11T00:02:11.133Z,100621.12
2022-09-11T00:03:11.061Z,100619.36
2022-09-11T00:04:11.066Z,100620.77
2022-09-11T00:05:11.065Z,100618.82
2022-09-11T00:06:11.063Z,100621.39
2022-09-11T00:07:11.063Z,100618.16
2022-09-11T00:08:11.064Z,100620.04
2022-09-11T00:09:11.061Z,100620.25
2022-09-11T00:10:11.063Z,100616.18
2022-09-11T00:11:15.075Z,100617.06
2022-09-11T00:12:11.066Z,100617.06
2022-09-11T00:13:11.061Z,100619.38
2022-09-11T00:14:14.281Z,100617.31
2022-09-11T00:15:11.066Z,100618.00
2022-09-11T00:16:19.136Z,100614.48
2022-09-11T00:17:11.065Z,100612.77
2022-09-11T00:18:13.073Z,100611.12
2022-09-11T00:19:14.065Z,100612.50
2022-09-11T00:20:11.067Z,100614.65
2022-09-11T00:21:11.059Z,100618.67
2022-09-11T00:22:11.057Z,100616.14
2022-09-11T00:23:11.057Z,100619.30
2022-09-11T00:24:11.058Z,100620.52
2022-09-11T00:25:11.060Z,100622.05
2022-09-11T00:26:11.055Z,100621.18
2022-09-11T00:27:11.058Z,100621.18
2022-09-11T00:28:13.068Z,100622.99
2022-09-11T00:29:11.056Z,100621.29
2022-09-11T00:30:11.060Z,100622.11
2022-09-11T00:31:16.087Z,100622.28
2022-09-11T00:32:11.060Z,100625.20
2022-09-11T00:33:11.067Z,100620.61
2022-09-11T00:34:11.067Z,100621.23
2022-09-11T00:35:11.061Z,100618.71
2022-09-11T00:36:15.063Z,100611.91
2022-09-11T00:37:11.060Z,100608.80
2022-09-11T00:38:15.384Z,100606.93
2022-09-11T00:39:13.101Z,100604.78
2022-09-11T00:40:11.105Z,100606.95
2022-09-11T00:41:15.061Z,100603.05
2022-09-11T00:42:11.058Z,100606.96
2022-09-11T00:43:11.063Z,100604.89
2022-09-11T00:44:19.061Z,100605.50
2022-09-11T00:45:20.067Z,100606.29
2022-09-11T00:46:11.085Z,100604.48
2022-09-11T00:47:14.061Z,100605.34
2022-09-11T00:48:11.068Z,100603.19
2022-09-11T00:49:22.060Z,100603.22
2022-09-11T00:50:19.311Z,100603.52
2022-09-11T00:51:11.063Z,100599.89
2022-09-11T00:52:20.062Z,100601.73
2022-09-11T00:53:13.064Z,100601.90
2022-09-11T00:54:12.062Z,100598.23
2022-09-11T00:55:15.062Z,100603.85
2022-09-11T00:56:11.071Z,100600.94
2022-09-11T00:57:11.063Z,100602.51
2022-09-11T00:58:13.065Z,100599.37
2022-09-11T00:59:11.071Z,100599.95
2022-09-11T01:00:11.065Z,100598.93
2022-09-11T01:01:11.129Z,100598.16
2022-09-11T01:02:12.095Z,100600.09
2022-09-11T01:03:11.064Z,100601.87
2022-09-11T01:04:11.062Z,100602.29
2022-09-11T01:05:11.064Z,100601.41
2022-09-11T01:06:11.076Z,100604.87
2022-09-11T01:07:12.065Z,100604.10
2022-09-11T01:08:11.060Z,100607.98
2022-09-11T01:09:11.066Z,100606.71
2022-09-11T01:10:11.063Z,100603.03
2022-09-11T01:11:20.064Z,100602.97
2022-09-11T01:12:19.066Z,100605.34
2022-09-11T01:13:16.073Z,100604.57
2022-09-11T01:14:19.066Z,100606.41
2022-09-11T01:15:20.064Z,100603.03
2022-09-11T01:16:19.122Z,100602.95
2022-09-11T01:17:21.067Z,100604.37
2022-09-11T01:18:19.080Z,100601.90
2022-09-11T01:19:19.064Z,100601.85
2022-09-11T01:20:19.065Z,100601.62
2022-09-11T01:21:19.055Z,100603.45
2022-09-11T01:22:19.058Z,100602.01
2022-09-11T01:23:19.068Z,100601.79
2022-09-11T01:24:21.058Z,100603.77
2022-09-11T01:25:19.059Z,100601.46
2022-09-11T01:26:19.057Z,100600.38
2022-09-11T01:27:19.059Z,100603.03
2022-09-11T01:28:16.060Z,100599.57
2022-09-11T01:29:19.060Z,100597.17
2022-09-11T01:30:20.061Z,100595.21
2022-09-11T01:31:15.128Z,100591.70
2022-09-11T01:32:19.065Z,100591.45
2022-09-11T01:33:20.060Z,100591.39
2022-09-11T01:34:21.067Z,100589.02
2022-09-11T01:35:18.060Z,100587.04
2022-09-11T01:36:21.057Z,100588.97
2022-09-11T01:37:15.059Z,100584.96
2022-09-11T01:38:20.059Z,100585.29
2022-09-11T01:39:11.060Z,100586.68
2022-09-11T01:40:19.060Z,100588.06
2022-09-11T01:41:16.059Z,100590.26
2022-09-11T01:42:12.062Z,100587.90
2022-09-11T01:43:15.062Z,100587.95
2022-09-11T01:44:21.061Z,100586.88
2022-09-11T01:45:11.061Z,100586.08
2022-09-11T01:46:12.060Z,100585.00
2022-09-11T01:47:11.068Z,100583.08
2022-09-11T01:48:11.062Z,100586.41
2022-09-11T01:49:19.065Z,100587.01
2022-09-11T01:50:12.060Z,100586.68
2022-09-11T01:51:14.070Z,100588.70
2022-09-11T01:52:16.061Z,100594.91
2022-09-11T01:53:11.062Z,100590.68
2022-09-11T01:54:16.063Z,100587.76
2022-09-11T01:55:19.067Z,100585.89
2022-09-11T01:56:15.063Z,100583.74
2022-09-11T01:57:21.061Z,100584.92
2022-09-11T01:58:19.066Z,100585.06
2022-09-11T01:59:13.061Z,100586.87
2022-09-11T02:00:12.063Z,100587.26
2022-09-11T02:01:18.062Z,100589.41
2022-09-11T02:02:13.076Z,100591.00
2022-09-11T02:03:19.069Z,100593.92
2022-09-11T02:04:15.063Z,100591.21
2022-09-11T02:05:22.062Z,100592.64
2022-09-11T02:06:15.063Z,100589.95
2022-09-11T02:07:15.067Z,100592.54
2022-09-11T02:08:17.063Z,100592.09
2022-09-11T02:09:14.060Z,100592.50
2022-09-11T02:10:15.063Z,100593.57
2022-09-11T02:11:12.066Z,100595.00
2022-09-11T02:12:12.073Z,100592.36
2022-09-11T02:13:21.066Z,100588.60
2022-09-11T02:14:19.064Z,100586.79
2022-09-11T02:15:11.066Z,100583.12
2022-09-11T02:16:20.131Z,100584.79
2022-09-11T02:17:21.065Z,100585.27
2022-09-11T02:18:19.062Z,100581.47
2022-09-11T02:19:14.063Z,100578.72
2022-09-11T02:20:11.070Z,100580.56
2022-09-11T02:21:11.055Z,100578.91
2022-09-11T02:22:11.060Z,100581.55
2022-09-11T02:23:11.065Z,100582.87
2022-09-11T02:24:11.059Z,100582.09
2022-09-11T02:25:11.053Z,100581.71
2022-09-11T02:26:11.071Z,100581.15
2022-09-11T02:27:12.060Z,100580.39
2022-09-11T02:28:11.057Z,100577.75
2022-09-11T02:29:11.058Z,100576.26
2022-09-11T02:30:11.061Z,100574.72
2022-09-11T02:31:11.146Z,100574.83
2022-09-11T02:32:11.064Z,100575.68
2022-09-11T02:33:19.059Z,100574.41
2022-09-11T02:34:12.061Z,100577.00
2022-09-11T02:35:11.059Z,100576.96
2022-09-11T02:36:19.068Z,100575.26
2022-09-11T02:37:19.061Z,100575.15
2022-09-11T02:38:19.058Z,100576.36
2022-09-11T02:39:19.060Z,100578.29
2022-09-11T02:40:19.063Z,100577.96
2022-09-11T02:41:20.069Z,100576.38
2022-09-11T02:42:21.061Z,100575.50
2022-09-11T02:43:19.061Z,100576.60
2022-09-11T02:44:21.058Z,100579.19
2022-09-11T02:45:19.104Z,100577.65
2022-09-11T02:46:19.059Z,100577.54
2022-09-11T02:47:21.069Z,100576.05
2022-09-11T02:48:21.067Z,100574.43
2022-09-11T02:49:19.064Z,100575.64
2022-09-11T02:50:19.059Z,100575.08
2022-09-11T02:51:19.061Z,100575.25
2022-09-11T02:52:21.071Z,100573.45
2022-09-11T02:53:22.063Z,100575.60
2022-09-11T02:54:21.064Z,100573.93
2022-09-11T02:55:18.060Z,100572.89
2022-09-11T02:56:20.071Z,100571.89
2022-09-11T02:57:21.060Z,100568.98
2022-09-11T02:58:16.069Z,100571.18
2022-09-11T02:59:19.067Z,100569.59
2022-09-11T03:00:11.063Z,100567.96
2022-09-11T03:01:11.127Z,100571.04
2022-09-11T03:02:15.228Z,100569.55
2022-09-11T03:03:11.066Z,100570.16
2022-09-11T03:04:11.063Z,100571.42
2022-09-11T03:05:11.068Z,100569.11
2022-09-11T03:06:16.065Z,100569.53
2022-09-11T03:07:11.062Z,100570.10
2022-09-11T03:08:11.068Z,100565.65
2022-09-11T03:09:11.070Z,100567.68
2022-09-11T03:10:11.062Z,100568.36
2022-09-11T03:11:11.072Z,100566.00
2022-09-11T03:12:11.071Z,100564.54
2022-09-11T03:13:11.071Z,100567.84
2022-09-11T03:14:11.066Z,100567.06
2022-09-11T03:15:11.070Z,100568.38
2022-09-11T03:16:11.101Z,100569.32
2022-09-11T03:17:11.065Z,100570.60
2022-09-11T03:18:11.073Z,100570.21
2022-09-11T03:19:11.062Z,100570.53
2022-09-11T03:20:11.070Z,100570.66
2022-09-11T03:21:11.066Z,100569.50
2022-09-11T03:22:11.059Z,100566.37
2022-09-11T03:23:12.060Z,100565.52
2022-09-11T03:24:11.065Z,100564.64
2022-09-11T03:25:11.060Z,100566.84
2022-09-11T03:26:11.058Z,100564.48
2022-09-11T03:27:11.058Z,100563.54
2022-09-11T03:28:11.061Z,100565.47
2022-09-11T03:29:11.057Z,100561.84
2022-09-11T03:30:11.057Z,100561.70
2022-09-11T03:31:11.131Z,100556.55
2022-09-11T03:32:11.060Z,100557.48
2022-09-11T03:33:11.059Z,100551.93
2022-09-11T03:34:11.065Z,100552.21
2022-09-11T03:35:11.058Z,100549.29
2022-09-11T03:36:11.061Z,100551.93
2022-09-11T03:37:11.068Z,100551.60
2022-09-11T03:38:11.058Z,100550.62
2022-09-11T03:39:11.063Z,100551.52
2022-09-11T03:40:11.134Z,100551.57
2022-09-11T03:41:11.058Z,100551.97
2022-09-11T03:42:11.063Z,100551.20
2022-09-11T03:43:11.068Z,100555.05
2022-09-11T03:44:11.062Z,100554.66
2022-09-11T03:45:11.056Z,100554.45
2022-09-11T03:46:11.068Z,100554.34
2022-09-11T03:47:11.065Z,100555.82
2022-09-11T03:48:11.057Z,100558.62
2022-09-11T03:49:11.059Z,100558.31
2022-09-11T03:50:11.062Z,100555.56
2022-09-11T03:51:11.062Z,100555.89
2022-09-11T03:52:11.061Z,100555.10
2022-09-11T03:53:11.064Z,100551.11
2022-09-11T03:54:11.060Z,100552.74
2022-09-11T03:55:11.061Z,100550.98
2022-09-11T03:56:11.069Z,100548.95
2022-09-11T03:57:11.060Z,100550.16
2022-09-11T03:58:11.064Z,100549.50
2022-09-11T03:59:11.068Z,100546.48
2022-09-11T04:00:11.063Z,100547.85
2022-09-11T04:01:12.094Z,100547.25
2022-09-11T04:02:11.111Z,100547.74
2022-09-11T04:03:11.064Z,100549.17
2022-09-11T04:04:11.062Z,100549.50
2022-09-11T04:05:11.065Z,100549.06
2022-09-11T04:06:11.066Z,100552.32
2022-09-11T04:07:11.063Z,100548.42
2022-09-11T04:08:12.070Z,100549.50
2022-09-11T04:09:11.064Z,100547.36
2022-09-11T04:10:11.062Z,100547.19
2022-09-11T04:11:11.063Z,100544.39
2022-09-11T04:12:11.071Z,100548.51
2022-09-11T04:13:11.062Z,100546.88
2022-09-11T04:14:11.068Z,100545.87
2022-09-11T04:15:11.071Z,100547.14
2022-09-11T04:16:12.083Z,100548.84
2022-09-11T04:17:12.061Z,100544.50
2022-09-11T04:18:11.066Z,100546.71
2022-09-11T04:19:11.065Z,100542.15
2022-09-11T04:20:11.066Z,100546.02
2022-09-11T04:21:13.060Z,100544.92
2022-09-11T04:22:11.066Z,100542.12
2022-09-11T04:23:11.057Z,100542.74
2022-09-11T04:24:11.059Z,100540.05
2022-09-11T04:25:11.065Z,100539.70
2022-09-11T04:26:19.058Z,100537.17
2022-09-11T04:27:11.058Z,100539.04
2022-09-11T04:28:11.057Z,100539.97
2022-09-11T04:29:11.059Z,100534.75
2022-09-11T04:30:11.057Z,100537.45
2022-09-11T04:31:11.100Z,100538.62
2022-09-11T04:32:11.061Z,100534.24
2022-09-11T04:33:11.069Z,100532.27
2022-09-11T04:34:11.062Z,100531.02
2022-09-11T04:35:11.065Z,100529.13
2022-09-11T04:36:17.063Z,100528.43
2022-09-11T04:37:11.059Z,100529.83
2022-09-11T04:38:11.061Z,100530.57
2022-09-11T04:39:11.057Z,100528.06
2022-09-11T04:40:11.099Z,100530.11
2022-09-11T04:41:12.067Z,100527.24
2022-09-11T04:42:11.062Z,100525.84
2022-09-11T04:43:11.056Z,100522.86
2022-09-11T04:44:11.073Z,100518.65
2022-09-11T04:45:11.062Z,100519.48
2022-09-11T04:46:12.059Z,100521.80
2022-09-11T04:47:11.063Z,100519.73
2022-09-11T04:48:11.067Z,100520.87
2022-09-11T04:49:11.058Z,100520.83
2022-09-11T04:50:11.062Z,100521.36
2022-09-11T04:51:11.064Z,100521.14
2022-09-11T04:52:11.060Z,100521.60
2022-09-11T04:53:11.065Z,100519.53
2022-09-11T04:54:14.065Z,100518.69
2022-09-11T04:55:11.065Z,100519.72
2022-09-11T04:56:11.067Z,100519.31
2022-09-11T04:57:11.067Z,100517.21
2022-09-11T04:58:11.062Z,100516.65
2022-09-11T04:59:12.062Z,100518.96
2022-09-11T05:00:11.061Z,100515.48
2022-09-11T05:01:11.116Z,100517.93
2022-09-11T05:02:11.125Z,100517.90
2022-09-11T05:03:11.062Z,100518.69
2022-09-11T05:04:11.070Z,100517.39
2022-09-11T05:05:11.062Z,100524.79
2022-09-11T05:06:11.065Z,100520.50
2022-09-11T05:07:11.071Z,100523.75
2022-09-11T05:08:11.062Z,100528.95
2022-09-11T05:09:11.065Z,100524.77
2022-09-11T05:10:11.071Z,100527.30
2022-09-11T05:11:15.062Z,100527.16
2022-09-11T05:12:11.062Z,100527.09
2022-09-11T05:13:11.065Z,100525.39
2022-09-11T05:14:11.064Z,100523.88
2022-09-11T05:15:11.060Z,100522.25
2022-09-11T05:16:11.140Z,100519.62
2022-09-11T05:17:11.064Z,100518.62
2022-09-11T05:18:11.063Z,100518.21
2022-09-11T05:19:11.064Z,100523.13
2022-09-11T05:20:11.981Z,100526.27
2022-09-11T05:21:13.063Z,100525.28
2022-09-11T05:22:11.061Z,100526.05
2022-09-11T05:23:12.068Z,100524.03
2022-09-11T05:24:11.060Z,100525.96
2022-09-11T05:25:11.054Z,100526.52
2022-09-11T05:26:15.061Z,100528.59
2022-09-11T05:27:11.060Z,100530.60
2022-09-11T05:28:11.060Z,100531.31
2022-09-11T05:29:14.065Z,100531.84
2022-09-11T05:30:11.060Z,100532.33
2022-09-11T05:31:14.129Z,100532.59
2022-09-11T05:32:11.059Z,100534.09
2022-09-11T05:33:11.062Z,100532.19
2022-09-11T05:34:11.058Z,100529.97
2022-09-11T05:35:11.059Z,100531.62
2022-09-11T05:36:11.066Z,100534.24
2022-09-11T05:37:11.058Z,100535.67
2022-09-11T05:38:11.062Z,100531.66
2022-09-11T05:39:11.070Z,100532.68
2022-09-11T05:40:11.090Z,100535.95
2022-09-11T05:41:11.073Z,100536.35
2022-09-11T05:42:11.062Z,100538.20
2022-09-11T05:43:11.062Z,100538.72
2022-09-11T05:44:11.058Z,100540.62
2022-09-11T05:45:11.064Z,100542.84
2022-09-11T05:46:12.060Z,100541.94
2022-09-11T05:47:11.060Z,100540.27
2022-09-11T05:48:11.061Z,100541.64
2022-09-11T05:49:11.063Z,100542.61
2022-09-11T05:50:11.060Z,100542.50
2022-09-11T05:51:13.065Z,100542.64
2022-09-11T05:52:11.073Z,100541.11
2022-09-11T05:53:11.061Z,100542.75
2022-09-11T05:54:11.065Z,100541.08
2022-09-11T05:55:11.069Z,100539.48
2022-09-11T05:56:17.061Z,100540.09
2022-09-11T05:57:11.060Z,100537.77
2022-09-11T05:58:11.070Z,100539.48
2022-09-11T05:59:15.064Z,100540.64
2022-09-11T06:00:11.063Z,100541.71
2022-09-11T06:01:14.208Z,100541.24
2022-09-11T06:02:11.148Z,100537.83
2022-09-11T06:03:15.295Z,100538.19
2022-09-11T06:04:13.071Z,100537.78
2022-09-11T06:05:11.071Z,100539.71
2022-09-11T06:06:11.062Z,100536.13
2022-09-11T06:07:11.067Z,100538.08
2022-09-11T06:08:11.071Z,100536.95
2022-09-11T06:09:11.062Z,100538.86
2022-09-11T06:10:11.065Z,100535.88
2022-09-11T06:11:12.072Z,100536.10
2022-09-11T06:12:11.066Z,100534.18
2022-09-11T06:13:11.060Z,100536.32
2022-09-11T06:14:11.066Z,100533.84
2022-09-11T06:15:24.858Z,100534.04
2022-09-11T06:16:17.804Z,100535.58
2022-09-11T06:17:13.104Z,100536.07
2022-09-11T06:18:11.074Z,100537.23
2022-09-11T06:19:11.067Z,100539.43
2022-09-11T06:20:11.062Z,100538.09
2022-09-11T06:21:14.066Z,100537.95
2022-09-11T06:22:11.058Z,100538.25
2022-09-11T06:23:13.060Z,100535.71
2022-09-11T06:24:11.058Z,100539.34
2022-09-11T06:25:11.061Z,100541.74
2022-09-11T06:26:11.057Z,100543.88
2022-09-11T06:27:11.058Z,100543.50
2022-09-11T06:28:11.059Z,100541.82
2022-09-11T06:29:11.058Z,100540.03
2022-09-11T06:30:11.058Z,100542.76
2022-09-11T06:31:12.059Z,100541.36
2022-09-11T06:32:11.059Z,100541.49
2022-09-11T06:33:11.059Z,100540.37
2022-09-11T06:34:11.060Z,100542.65
2022-09-11T06:35:11.062Z,100543.48
2022-09-11T06:36:12.059Z,100542.01
2022-09-11T06:37:11.060Z,100547.18
2022-09-11T06:38:11.062Z,100546.09
2022-09-11T06:39:11.059Z,100544.87
2022-09-11T06:40:11.118Z,100544.87
2022-09-11T06:41:12.058Z,100546.82
2022-09-11T06:42:11.059Z,100543.55
2022-09-11T06:43:11.061Z,100543.77
2022-09-11T06:44:11.059Z,100544.29
2022-09-11T06:45:11.059Z,100544.59
2022-09-11T06:46:15.070Z,100549.46
2022-09-11T06:47:11.059Z,100545.42
2022-09-11T06:48:11.062Z,100544.78
2022-09-11T06:49:11.068Z,100544.09
2022-09-11T06:50:11.061Z,100545.48
2022-09-11T06:51:11.063Z,100548.59
2022-09-11T06:52:11.070Z,100546.12
2022-09-11T06:53:11.060Z,100544.54
2022-09-11T06:54:11.062Z,100547.46
2022-09-11T06:55:11.069Z,100544.52
2022-09-11T06:56:13.076Z,100548.34
2022-09-11T06:57:11.065Z,100549.88
2022-09-11T06:58:11.068Z,100550.93
2022-09-11T06:59:11.061Z,100551.78
2022-09-11T07:00:11.062Z,100549.66
2022-09-11T07:01:15.213Z,100548.67
2022-09-11T07:02:11.194Z,100544.98
2022-09-11T07:03:11.064Z,100548.54
2022-09-11T07:04:11.071Z,100545.81
2022-09-11T07:05:11.066Z,100541.52
2022-09-11T07:06:11.060Z,100543.06
2022-09-11T07:07:11.071Z,100541.32
2022-09-11T07:08:11.066Z,100539.67
2022-09-11T07:09:12.061Z,100545.58
2022-09-11T07:10:11.066Z,100543.72
2022-09-11T07:11:11.068Z,100545.42
2022-09-11T07:12:11.059Z,100546.29
2022-09-11T07:13:11.066Z,100550.28
2022-09-11T07:14:11.065Z,100549.18
2022-09-11T07:15:11.066Z,100551.45
2022-09-11T07:16:11.137Z,100549.00
2022-09-11T07:17:11.065Z,100549.62
2022-09-11T07:18:11.061Z,100550.28
2022-09-11T07:19:11.071Z,100550.71
2022-09-11T07:20:11.067Z,100550.21
2022-09-11T07:21:11.056Z,100550.86
2022-09-11T07:22:11.056Z,100548.16
2022-09-11T07:23:11.057Z,100547.56
2022-09-11T07:24:11.056Z,100544.09
2022-09-11T07:25:11.058Z,100538.88
2022-09-11T07:26:12.065Z,100543.11
2022-09-11T07:27:11.060Z,100537.95
2022-09-11T07:28:11.062Z,100542.37
2022-09-11T07:29:11.066Z,100538.34
2022-09-11T07:30:11.059Z,100537.63
2022-09-11T07:31:18.606Z,100538.22
2022-09-11T07:32:13.426Z,100537.07
2022-09-11T07:33:11.059Z,100536.48
2022-09-11T07:34:11.058Z,100539.87
2022-09-11T07:35:11.058Z,100536.58
2022-09-11T07:36:11.060Z,100543.09
2022-09-11T07:37:11.057Z,100540.61
2022-09-11T07:38:11.059Z,100541.49
2022-09-11T07:39:11.060Z,100536.89
2022-09-11T07:40:11.121Z,100535.43
2022-09-11T07:41:11.063Z,100536.99
2022-09-11T07:42:11.061Z,100535.98
2022-09-11T07:43:11.058Z,100537.10
2022-09-11T07:44:11.060Z,100537.12
2022-09-11T07:45:11.061Z,100535.50
2022-09-11T07:46:11.128Z,100532.44
2022-09-11T07:47:11.061Z,100535.50
2022-09-11T07:48:11.068Z,100534.36
2022-09-11T07:49:11.058Z,100534.29
2022-09-11T07:50:11.063Z,100533.87
2022-09-11T07:51:13.081Z,100532.24
2022-09-11T07:52:16.170Z,100532.93
2022-09-11T07:53:13.253Z,100529.29
2022-09-11T07:54:11.064Z,100531.64
2022-09-11T07:55:11.070Z,100527.91
2022-09-11T07:56:11.062Z,100528.04
2022-09-11T07:57:11.064Z,100529.99
2022-09-11T07:58:11.069Z,100528.95
2022-09-11T07:59:11.066Z,100527.84
2022-09-11T08:00:11.065Z,100523.89
2022-09-11T08:01:14.100Z,100523.90
2022-09-11T08:02:11.085Z,100528.32
2022-09-11T08:03:11.063Z,100524.63
2022-09-11T08:04:12.065Z,100525.30
2022-09-11T08:05:11.066Z,100526.66
2022-09-11T08:06:11.062Z,100527.72
2022-09-11T08:07:11.067Z,100526.14
2022-09-11T08:08:11.073Z,100526.43
2022-09-11T08:09:13.095Z,100520.54
2022-09-11T08:10:26.702Z,100519.46
2022-09-11T08:11:16.089Z,100518.42
2022-09-11T08:12:11.070Z,100514.19
2022-09-11T08:13:11.062Z,100515.40
2022-09-11T08:14:11.064Z,100512.18
2022-09-11T08:15:11.077Z,100515.04
2022-09-11T08:16:11.113Z,100511.69
2022-09-11T08:17:11.067Z,100511.77
2022-09-11T08:18:11.073Z,100513.75
2022-09-11T08:19:15.065Z,100511.66
2022-09-11T08:20:11.064Z,100511.01
2022-09-11T08:21:13.126Z,100512.71
2022-09-11T08:22:11.062Z,100514.62
2022-09-11T08:23:11.060Z,100513.34
2022-09-11T08:24:13.099Z,100511.45
2022-09-11T08:25:11.065Z,100515.48
2022-09-11T08:26:15.060Z,100511.95
2022-09-11T08:27:11.059Z,100510.68
2022-09-11T08:28:11.059Z,100508.19
2022-09-11T08:29:11.061Z,100510.39
2022-09-11T08:30:11.058Z,100511.15
2022-09-11T08:31:11.102Z,100510.31
2022-09-11T08:32:11.067Z,100510.20
2022-09-11T08:33:11.058Z,100512.56
2022-09-11T08:34:11.057Z,100510.18
2022-09-11T08:35:11.060Z,100510.41
2022-09-11T08:36:11.060Z,100509.77
2022-09-11T08:37:11.070Z,100512.39
2022-09-11T08:38:11.059Z,100509.15
2022-09-11T08:39:11.069Z,100510.07
2022-09-11T08:40:11.140Z,100509.62
2022-09-11T08:41:19.062Z,100511.88
2022-09-11T08:42:16.063Z,100510.36
2022-09-11T08:43:21.059Z,100511.60
2022-09-11T08:44:19.061Z,100510.88
2022-09-11T08:45:18.062Z,100511.68
2022-09-11T08:46:11.111Z,100514.57
2022-09-11T08:47:15.063Z,100517.77
2022-09-11T08:48:11.057Z,100514.77
2022-09-11T08:49:21.069Z,100514.27
2022-09-11T08:50:18.077Z,100515.54
2022-09-11T08:51:14.065Z,100513.36
2022-09-11T08:52:12.061Z,100515.66
2022-09-11T08:53:16.062Z,100511.75
2022-09-11T08:54:21.064Z,100517.47
2022-09-11T08:55:16.065Z,100512.62
2022-09-11T08:56:16.064Z,100514.26
2022-09-11T08:57:21.063Z,100512.33
2022-09-11T08:58:20.065Z,100516.99
2022-09-11T08:59:19.084Z,100515.39
2022-09-11T09:00:19.171Z,100515.17
2022-09-11T09:01:23.819Z,100511.03
2022-09-11T09:02:21.085Z,100513.59
2022-09-11T09:03:21.065Z,100515.00
2022-09-11T09:04:19.067Z,100515.59
2022-09-11T09:05:23.072Z,100513.88
2022-09-11T09:06:19.066Z,100513.20
2022-09-11T09:07:19.066Z,100517.99
2022-09-11T09:08:19.063Z,100517.98
2022-09-11T09:09:19.064Z,100516.14
2022-09-11T09:10:19.067Z,100516.11
2022-09-11T09:11:19.066Z,100518.35
2022-09-11T09:12:19.064Z,100516.53
2022-09-11T09:13:19.064Z,100518.36
2022-09-11T09:14:19.067Z,100521.35
2022-09-11T09:15:19.072Z,100518.82
2022-09-11T09:16:21.136Z,100517.48
2022-09-11T09:17:15.068Z,100516.25
2022-09-11T09:18:20.065Z,100515.66
2022-09-11T09:19:16.069Z,100517.79
2022-09-11T09:20:15.065Z,100519.23
2022-09-11T09:21:20.059Z,100517.57
2022-09-11T09:22:19.059Z,100518.14
2022-09-11T09:23:19.066Z,100516.56
2022-09-11T09:24:18.059Z,100513.02
2022-09-11T09:25:14.060Z,100516.23
2022-09-11T09:26:16.069Z,100516.04
2022-09-11T09:27:19.065Z,100515.53
2022-09-11T09:28:19.060Z,100515.34
2022-09-11T09:29:19.062Z,100512.49
2022-09-11T09:30:15.067Z,100514.71
2022-09-11T09:31:11.113Z,100516.78
2022-09-11T09:32:16.055Z,100515.18
2022-09-11T09:33:19.064Z,100518.43
2022-09-11T09:34:17.063Z,100520.07
2022-09-11T09:35:19.058Z,100522.28
2022-09-11T09:36:19.056Z,100520.82
2022-09-11T09:37:19.060Z,100521.17
2022-09-11T09:38:16.831Z,100525.31
2022-09-11T09:39:15.070Z,100525.55
2022-09-11T09:40:11.163Z,100527.92
2022-09-11T09:41:21.058Z,100527.18
2022-09-11T09:42:19.063Z,100529.20
2022-09-11T09:43:19.064Z,100530.32
2022-09-11T09:44:19.749Z,100528.57
2022-09-11T09:45:19.064Z,100526.25
2022-09-11T09:46:19.084Z,100524.57
2022-09-11T09:47:13.058Z,100521.79
2022-09-11T09:48:11.063Z,100518.35
2022-09-11T09:49:12.063Z,100517.65
2022-09-11T09:50:16.058Z,100516.68
2022-09-11T09:51:13.061Z,100513.66
2022-09-11T09:52:16.063Z,100512.90
2022-09-11T09:53:23.061Z,100512.44
2022-09-11T09:54:15.061Z,100516.04
2022-09-11T09:55:15.064Z,100512.55
2022-09-11T09:56:14.070Z,100515.66
2022-09-11T09:57:11.064Z,100513.73
2022-09-11T09:58:11.059Z,100512.66
2022-09-11T09:59:16.071Z,100508.47
2022-09-11T10:00:16.110Z,100509.86
2022-09-11T10:01:19.084Z,100504.75
2022-09-11T10:02:11.097Z,100507.63
2022-09-11T10:03:18.073Z,100507.76
2022-09-11T10:04:18.066Z,100506.48
2022-09-11T10:05:19.063Z,100504.60
2022-09-11T10:06:11.060Z,100504.03
2022-09-11T10:07:18.073Z,100505.59
2022-09-11T10:08:19.066Z,100502.94
2022-09-11T10:09:19.064Z,100501.75
2022-09-11T10:10:19.069Z,100502.88
2022-09-11T10:11:12.071Z,100500.54
2022-09-11T10:12:16.067Z,100501.28
2022-09-11T10:13:19.796Z,100500.61
2022-09-11T10:14:46.782Z,100501.47
2022-09-11T10:15:21.879Z,100501.55
2022-09-11T10:16:19.147Z,100499.75
2022-09-11T10:17:19.064Z,100507.69
2022-09-11T10:18:19.063Z,100503.00
2022-09-11T10:19:19.069Z,100502.55
2022-09-11T10:20:21.065Z,100503.64
2022-09-11T10:21:19.059Z,100499.70
2022-09-11T10:22:19.057Z,100498.02
2022-09-11T10:23:19.056Z,100499.53
2022-09-11T10:24:19.057Z,100499.56
2022-09-11T10:25:15.065Z,100500.52
2022-09-11T10:26:18.060Z,100500.97
2022-09-11T10:27:12.057Z,100500.89
2022-09-11T10:28:16.062Z,100502.45
2022-09-11T10:29:17.072Z,100501.12
2022-09-11T10:30:19.062Z,100500.14
2022-09-11T10:31:13.094Z,100503.96
2022-09-11T10:32:16.060Z,100503.66
2022-09-11T10:33:19.067Z,100504.46
2022-09-11T10:34:15.061Z,100507.03
2022-09-11T10:35:11.059Z,100506.67
2022-09-11T10:36:11.059Z,100506.58
2022-09-11T10:37:19.061Z,100507.36
2022-09-11T10:38:18.128Z,100503.97
2022-09-11T10:39:18.057Z,100502.84
2022-09-11T10:40:21.059Z,100504.12
2022-09-11T10:41:16.069Z,100501.15
2022-09-11T10:42:19.063Z,100502.68
2022-09-11T10:43:20.060Z,100500.73
2022-09-11T10:44:14.063Z,100498.77
2022-09-11T10:45:17.081Z,100499.72
2022-09-11T10:46:19.063Z,100497.24
2022-09-11T10:47:18.065Z,100491.59
2022-09-11T10:48:15.059Z,100493.57
2022-09-11T10:49:18.066Z,100492.52
2022-09-11T10:50:21.064Z,100493.47
2022-09-11T10:51:12.063Z,100492.47
2022-09-11T10:52:18.062Z,100488.44
2022-09-11T10:53:19.075Z,100491.52
2022-09-11T10:54:19.072Z,100494.26
2022-09-11T10:55:13.071Z,100495.28
2022-09-11T10:56:11.065Z,100488.09
2022-09-11T10:57:19.065Z,100492.30
2022-09-11T10:58:16.065Z,100484.30
2022-09-11T10:59:16.066Z,100484.11
2022-09-11T11:00:21.064Z,100485.05
2022-09-11T11:01:11.076Z,100484.78
2022-09-11T11:02:19.131Z,100484.05
2022-09-11T11:03:18.073Z,100482.57
2022-09-11T11:04:12.476Z,100478.32
2022-09-11T11:05:21.070Z,100475.81
2022-09-11T11:06:19.067Z,100474.66
2022-09-11T11:07:21.070Z,100474.91
2022-09-11T11:08:19.078Z,100471.25
2022-09-11T11:09:21.067Z,100469.27
2022-09-11T11:10:21.065Z,100465.32
2022-09-11T11:11:19.062Z,100468.56
2022-09-11T11:12:23.065Z,100467.94
2022-09-11T11:13:19.074Z,100467.18
2022-09-11T11:14:19.068Z,100466.95
2022-09-11T11:15:21.064Z,100463.88
2022-09-11T11:16:19.109Z,100467.46
2022-09-11T11:17:19.067Z,100465.32
2022-09-11T11:18:21.076Z,100463.46
2022-09-11T11:19:19.067Z,100458.75
2022-09-11T11:20:19.121Z,100463.57
2022-09-11T11:21:21.059Z,100462.32
2022-09-11T11:22:19.058Z,100456.16
2022-09-11T11:23:19.065Z,100457.88
2022-09-11T11:24:21.059Z,100452.13